Time;durP1;ratioP1;P1;durP2;ratioP2;P2;SDS_P1;SDS_P2;PMS_P1;PMS_P2;Temp;Humidity;BMP_temperature;BMP_pressure;BME280_temperature;BME280_humidity;BME280_pressure;Samples;Min_cycle;Max_cycle;Signal;HPM_P1;HPM_P2
2024/02/12 00:01:03;;;;;;;2.08;1.55;;;;;;;21.43;44.12;99589.47;4969582;28;117009;-76
2024/02/12 00:03:31;;;;;;;1.83;0.80;;;;;;;21.43;44.34;99600.09;4970204;28;97421;-75
2024/02/12 00:05:57;;;;;;;3.90;1.63;;;;;;;21.43;44.20;99594.78;4958418;28;100079;-76
2024/02/12 00:08:22;;;;;;;2.65;1.10;;;;;;;21.43;44.27;99600.09;4959629;28;96812;-75
2024/02/12 00:10:49;;;;;;;2.13;1.10;;;;;;;21.42;44.40;99601.88;4968633;28;96705;-76
2024/02/12 00:13:17;;;;;;;2.45;1.65;;;;;;;21.43;44.13;99610.72;4966826;28;97415;-76
2024/02/12 00:15:45;;;;;;;2.42;1.42;;;;;;;21.43;44.20;99613.34;4957934;28;100587;-75
2024/02/12 00:18:10;;;;;;;1.77;0.95;;;;;;;21.43;44.34;99616.00;4962878;28;97975;-76
2024/02/12 00:20:36;;;;;;;4.00;1.20;;;;;;;21.43;44.08;99623.97;4967520;28;97197;-75
2024/02/12 00:23:02;;;;;;;2.35;0.82;;;;;;;21.42;44.07;99631.03;4964825;28;96961;-75
2024/02/12 00:25:28;;;;;;;3.42;1.15;;;;;;;21.42;44.26;99631.03;4967488;28;97795;-75
2024/02/12 00:27:55;;;;;;;2.28;1.35;;;;;;;21.42;44.40;99636.34;4966783;28;100513;-76
2024/02/12 00:30:20;;;;;;;3.55;1.60;;;;;;;21.43;44.34;99632.78;4962438;28;96693;-76
2024/02/12 00:32:46;;;;;;;2.25;1.48;;;;;;;21.42;44.10;99646.13;4970079;28;96880;-76
2024/02/12 00:35:11;;;;;;;1.95;0.80;;;;;;;21.42;44.06;99649.63;4936368;28;99881;-75
2024/02/12 00:37:37;;;;;;;1.75;0.95;;;;;;;21.42;44.04;99648.75;4961264;28;97603;-75
2024/02/12 00:40:08;;;;;;;1.98;0.80;;;;;;;21.43;44.03;99650.50;4947491;28;98054;-75
2024/02/12 00:42:38;;;;;;;2.28;1.40;;;;;;;21.43;44.07;99655.81;4962601;28;97358;-76
2024/02/12 00:45:07;;;;;;;2.72;1.40;;;;;;;21.42;44.29;99662.03;4961669;28;96779;-75
2024/02/12 00:47:34;;;;;;;1.73;0.93;;;;;;;21.42;44.33;99665.53;4967942;28;96729;-76
2024/02/12 00:50:00;;;;;;;2.30;1.52;;;;;;;21.41;44.08;99663.84;4968918;28;96788;-76
2024/02/12 00:52:27;;;;;;;1.80;1.10;;;;;;;21.42;44.13;99668.19;4966485;28;96890;-75
2024/02/12 00:54:52;;;;;;;3.25;1.70;;;;;;;21.43;44.08;99672.56;4970188;28;98134;-75
2024/02/12 00:57:22;;;;;;;2.45;1.65;;;;;;;21.42;44.07;99681.44;4965136;28;99562;-75
2024/02/12 00:59:48;;;;;;;2.38;0.75;;;;;;;21.41;44.28;99681.56;4959405;28;96755;-75
2024/02/12 01:02:13;;;;;;;2.67;1.20;;;;;;;21.41;44.25;99686.84;4957343;28;97118;-76
2024/02/12 01:04:39;;;;;;;2.17;1.00;;;;;;;21.41;44.33;99690.34;4967656;28;96834;-76
2024/02/12 01:07:04;;;;;;;2.15;1.67;;;;;;;21.42;44.05;99693.84;4950861;28;96656;-76
2024/02/12 01:09:30;;;;;;;2.53;0.85;;;;;;;21.41;44.37;99693.00;4964562;28;96849;-75
2024/02/12 01:11:56;;;;;;;2.00;0.90;;;;;;;21.41;44.13;99700.97;4961952;28;97184;-76
2024/02/12 01:14:23;;;;;;;3.22;1.20;;;;;;;21.42;44.23;99699.16;4962740;28;97562;-74
2024/02/12 01:16:49;;;;;;;2.35;1.52;;;;;;;21.42;44.22;99707.13;4964066;28;97535;-76
2024/02/12 01:19:15;;;;;;;1.95;0.70;;;;;;;21.41;44.03;99706.28;4965392;28;96716;-76
2024/02/12 01:21:40;;;;;;;2.53;1.00;;;;;;;21.40;44.23;99707.19;4956368;28;97102;-76
2024/02/12 01:24:06;;;;;;;2.13;1.60;;;;;;;21.41;44.17;99711.56;4953061;28;102823;-76
2024/02/12 01:26:34;;;;;;;2.58;1.50;;;;;;;21.41;44.22;99716.03;4948690;28;99388;-76
2024/02/12 01:29:04;;;;;;;2.13;1.55;;;;;;;21.41;44.36;99714.22;4962166;28;96721;-75
2024/02/12 01:31:29;;;;;;;2.40;1.73;;;;;;;21.40;44.16;99714.31;4961317;28;96852;-75
2024/02/12 01:33:55;;;;;;;1.90;0.82;;;;;;;21.39;44.28;99726.72;4971541;28;98002;-76
2024/02/12 01:36:21;;;;;;;1.95;0.85;;;;;;;21.41;44.24;99722.19;4970851;28;100233;-75
2024/02/12 01:38:46;;;;;;;3.20;2.15;;;;;;;21.41;44.49;99718.69;4972357;28;96647;-76
2024/02/12 01:41:12;;;;;;;3.13;1.70;;;;;;;21.41;43.98;99719.53;4964998;28;96755;-76
2024/02/12 01:43:40;;;;;;;1.90;1.10;;;;;;;21.41;44.02;99721.34;4968079;28;97541;-76
2024/02/12 01:46:05;;;;;;;2.00;1.02;;;;;;;21.40;44.28;99724.91;4964297;28;97336;-76
2024/02/12 01:48:32;;;;;;;2.80;1.35;;;;;;;21.41;44.22;99734.59;4965652;28;96856;-75
2024/02/12 01:51:06;;;;;;;1.52;0.85;;;;;;;21.41;44.25;99729.31;4967488;28;96917;-75
2024/02/12 01:53:35;;;;;;;3.72;1.95;;;;;;;21.40;44.25;99719.59;4967432;28;99910;-76
2024/02/12 01:56:02;;;;;;;1.83;0.90;;;;;;;21.41;44.41;99731.94;4968758;28;97338;-76
2024/02/12 01:58:30;;;;;;;2.30;1.92;;;;;;;21.40;43.85;99732.88;4968570;28;96783;-75
2024/02/12 02:00:57;;;;;;;2.67;1.02;;;;;;;21.40;44.21;99739.03;4965532;28;97006;-75
2024/02/12 02:03:24;;;;;;;2.28;1.00;;;;;;;21.41;43.94;99746.06;4969956;28;99677;-75
2024/02/12 02:05:52;;;;;;;1.75;1.02;;;;;;;21.41;44.37;99742.56;4961124;28;97703;-76
2024/02/12 02:08:18;;;;;;;2.25;1.77;;;;;;;21.40;44.04;99738.19;4969742;28;97289;-76
2024/02/12 02:10:48;;;;;;;2.80;1.23;;;;;;;21.40;44.21;99739.03;4972851;28;97243;-76
2024/02/12 02:13:15;;;;;;;2.30;1.42;;;;;;;21.40;44.03;99754.09;4970089;28;100152;-75
2024/02/12 02:15:42;;;;;;;2.42;1.70;;;;;;;21.40;44.29;99746.13;4967168;28;96728;-76
2024/02/12 02:18:08;;;;;;;1.85;1.10;;;;;;;21.40;44.27;99746.97;4958517;28;97411;-75
2024/02/12 02:20:36;;;;;;;2.67;1.85;;;;;;;21.41;44.41;99756.69;4964494;28;97565;-76
2024/02/12 02:23:04;;;;;;;2.63;1.58;;;;;;;21.40;44.20;99757.59;4967708;28;97931;-75
2024/02/12 02:25:29;;;;;;;2.30;1.05;;;;;;;21.39;44.22;99755.91;4960011;28;99664;-75
2024/02/12 02:27:54;;;;;;;2.63;1.75;;;;;;;21.40;44.34;99756.75;4963531;28;98813;-76
2024/02/12 02:30:21;;;;;;;2.35;0.85;;;;;;;21.40;44.18;99762.06;4961657;28;96807;-76
2024/02/12 02:32:47;;;;;;;2.53;1.70;;;;;;;21.39;44.30;99755.91;4969305;28;100647;-76
2024/02/12 02:35:13;;;;;;;2.60;1.63;;;;;;;21.40;44.10;99764.69;4961563;28;98043;-76
2024/02/12 02:37:39;;;;;;;2.08;1.55;;;;;;;21.39;44.04;99763.84;4963707;28;96789;-75
2024/02/12 02:40:06;;;;;;;2.35;1.70;;;;;;;21.40;44.20;99762.91;4962300;28;97291;-76
2024/02/12 02:42:32;;;;;;;2.75;1.10;;;;;;;21.40;44.02;99775.31;4959498;28;97974;-76
2024/02/12 02:44:57;;;;;;;3.00;1.73;;;;;;;21.40;43.90;99775.31;4965269;28;97651;-76
2024/02/12 02:47:23;;;;;;;3.25;1.60;;;;;;;21.39;44.15;99771.81;4962560;28;96822;-75
2024/02/12 02:49:48;;;;;;;3.17;1.70;;;;;;;21.39;44.25;99776.22;4966896;28;97305;-75
2024/02/12 02:52:13;;;;;;;1.70;0.98;;;;;;;21.39;44.15;99785.06;4965265;28;99349;-76
2024/02/12 02:54:39;;;;;;;2.58;1.58;;;;;;;21.39;44.54;99779.78;4959310;28;97199;-76
2024/02/12 02:57:05;;;;;;;1.95;1.00;;;;;;;21.38;44.10;99780.69;4959390;28;102983;-75
2024/02/12 02:59:31;;;;;;;2.28;1.60;;;;;;;21.38;44.12;99785.16;4963101;28;97420;-75
2024/02/12 03:01:56;;;;;;;2.47;1.58;;;;;;;21.39;43.92;99784.19;4957682;28;97665;-76
2024/02/12 03:04:22;;;;;;;2.03;1.08;;;;;;;21.38;44.04;99783.34;4967974;28;100030;-75
2024/02/12 03:06:47;;;;;;;2.65;1.23;;;;;;;21.38;44.04;99783.34;4964059;28;102628;-76
2024/02/12 03:09:13;;;;;;;2.40;1.30;;;;;;;21.39;44.09;99787.72;4943049;28;97178;-76
2024/02/12 03:11:39;;;;;;;2.60;1.30;;;;;;;21.38;43.95;99791.31;4961297;28;97630;-76
2024/02/12 03:14:11;;;;;;;2.58;1.70;;;;;;;21.38;44.30;99783.34;4967403;28;97284;-74
2024/02/12 03:16:37;;;;;;;2.08;1.42;;;;;;;21.38;44.10;99779.84;4947643;28;96779;-76
2024/02/12 03:19:02;;;;;;;2.97;1.10;;;;;;;21.38;44.30;99787.78;4965235;28;96767;-76
2024/02/12 03:21:28;;;;;;;2.72;1.63;;;;;;;21.38;43.88;99796.59;4964057;28;98079;-76
2024/02/12 03:23:53;;;;;;;2.45;1.70;;;;;;;21.37;44.12;99786.06;4966987;28;100479;-75
2024/02/12 03:26:19;;;;;;;2.60;1.75;;;;;;;21.38;43.84;99783.34;4967355;28;97955;-76
2024/02/12 03:28:44;;;;;;;2.30;1.63;;;;;;;21.38;44.11;99798.41;4962491;28;96855;-75
2024/02/12 03:31:10;;;;;;;2.33;1.10;;;;;;;21.37;44.29;99792.25;4961242;28;97617;-76
2024/02/12 03:33:36;;;;;;;2.55;1.70;;;;;;;21.37;44.04;99805.50;4966956;28;97346;-76
2024/02/12 03:36:02;;;;;;;1.98;1.27;;;;;;;21.38;44.13;99816.97;4962194;28;96895;-76
2024/02/12 03:38:27;;;;;;;2.17;1.60;;;;;;;21.37;44.17;99813.47;4970963;28;97355;-76
2024/02/12 03:40:54;;;;;;;2.40;1.10;;;;;;;21.37;44.06;99810.81;4970034;28;97562;-75
2024/02/12 03:43:23;;;;;;;2.85;1.73;;;;;;;21.38;43.97;99816.97;4958391;28;97706;-76
2024/02/12 03:45:49;;;;;;;2.17;1.55;;;;;;;21.38;43.79;99819.63;4970203;28;96796;-76
2024/02/12 04:01:54;;;;;;;2.88;1.33;;;;;;;21.32;44.08;99847.31;4961750;28;97473;-76
2024/02/12 04:04:20;;;;;;;2.00;1.23;;;;;;;21.34;44.27;99852.50;4958740;28;97670;-75
2024/02/12 04:06:45;;;;;;;2.42;1.15;;;;;;;21.34;44.12;99858.69;4960728;28;97246;-76
2024/02/12 04:09:11;;;;;;;2.40;1.50;;;;;;;21.34;43.92;99861.34;4960268;28;97137;-76
2024/02/12 04:11:39;;;;;;;2.83;1.20;;;;;;;21.35;44.21;99855.09;4969310;28;100415;-75
2024/02/12 04:14:05;;;;;;;3.80;1.63;;;;;;;21.35;44.12;99856.91;4967315;28;97746;-76
2024/02/12 04:16:30;;;;;;;3.10;1.80;;;;;;;21.35;44.19;99862.19;4966544;28;97074;-76
2024/02/12 04:18:56;;;;;;;3.88;1.67;;;;;;;21.35;44.15;99856.91;4955655;28;96760;-76
2024/02/12 04:21:22;;;;;;;2.90;1.85;;;;;;;21.36;44.06;99855.97;4968538;28;97575;-76
2024/02/12 04:23:49;;;;;;;2.03;1.17;;;;;;;21.36;44.12;99859.47;4958739;28;97409;-76
2024/02/12 04:26:15;;;;;;;1.88;1.10;;;;;;;21.36;44.12;99867.44;4960707;28;98782;-76
2024/02/12 04:28:43;;;;;;;2.17;1.05;;;;;;;21.35;43.80;99855.09;4967500;28;97014;-76
2024/02/12 04:31:11;;;;;;;3.00;1.30;;;;;;;21.35;44.00;99856.91;4969554;28;96770;-76
2024/02/12 04:33:37;;;;;;;2.10;1.55;;;;;;;21.36;44.06;99859.47;4968266;28;97460;-76
2024/02/12 04:36:03;;;;;;;2.13;1.10;;;;;;;21.35;43.91;99860.41;4965278;28;97706;-76
2024/02/12 04:38:33;;;;;;;3.08;1.23;;;;;;;21.36;43.86;99870.09;4967762;28;96988;-76
2024/02/12 04:40:59;;;;;;;2.42;1.10;;;;;;;21.35;43.78;99868.34;4955341;28;98234;-76
2024/02/12 04:43:24;;;;;;;2.58;1.70;;;;;;;21.35;44.10;99860.41;4945632;28;98983;-76
2024/02/12 04:45:51;;;;;;;2.30;1.85;;;;;;;21.36;44.00;99871.91;4959062;28;96972;-76
2024/02/12 04:48:18;;;;;;;1.83;0.90;;;;;;;21.35;43.81;99876.31;4965351;28;96963;-76
2024/02/12 04:50:45;;;;;;;2.85;1.67;;;;;;;21.35;43.90;99878.97;4962504;28;115858;-75
2024/02/12 04:53:11;;;;;;;3.10;1.98;;;;;;;21.35;43.77;99878.97;4945904;28;96754;-76
2024/02/12 04:55:36;;;;;;;2.70;1.30;;;;;;;21.35;44.17;99878.97;4965803;28;96911;-76
2024/02/12 04:58:02;;;;;;;2.45;1.70;;;;;;;21.35;44.13;99884.28;4963871;28;96774;-76
2024/02/12 05:00:30;;;;;;;2.50;1.20;;;;;;;21.35;44.06;99889.59;4964793;28;100621;-76
2024/02/12 05:02:57;;;;;;;2.75;1.98;;;;;;;21.34;44.07;99877.28;4963463;28;98046;-76
2024/02/12 05:05:22;;;;;;;1.98;0.90;;;;;;;21.35;43.71;99886.06;4965249;28;97324;-76
2024/02/12 05:07:48;;;;;;;2.28;1.75;;;;;;;21.34;43.89;99884.34;4964934;28;96826;-75
2024/02/12 05:10:13;;;;;;;2.75;1.92;;;;;;;21.34;44.08;99887.88;4961419;28;98711;-76
2024/02/12 05:12:39;;;;;;;2.10;1.60;;;;;;;21.35;43.65;99899.34;4965317;28;97297;-76
2024/02/12 05:15:06;;;;;;;3.20;1.27;;;;;;;21.35;43.80;99902.00;4962876;28;97222;-76
2024/02/12 05:17:52;;;;;;;2.92;1.83;;;;;;;21.33;43.83;99899.41;4970223;28;97513;-76
2024/02/12 05:23:03;;;;;;;2.50;1.52;;;;;;;21.33;43.80;99903.88;4959406;28;96813;-76
2024/02/12 05:25:28;;;;;;;3.13;1.83;;;;;;;21.33;43.82;99906.50;4964246;28;98711;-76
2024/02/12 05:27:54;;;;;;;2.58;2.08;;;;;;;21.33;43.86;99902.06;4965417;28;97160;-76
2024/02/12 05:30:20;;;;;;;3.22;1.13;;;;;;;21.34;44.01;99913.53;4959997;28;97574;-76
2024/02/12 05:32:45;;;;;;;3.50;2.28;;;;;;;21.33;43.83;99907.38;4968506;28;97213;-76
2024/02/12 05:35:12;;;;;;;2.60;1.13;;;;;;;21.34;43.86;99911.75;4956265;28;99689;-76
2024/02/12 05:37:37;;;;;;;2.75;2.20;;;;;;;21.34;43.58;99908.22;4965142;28;96790;-76
2024/02/12 05:40:07;;;;;;;2.35;1.20;;;;;;;21.34;43.87;99916.16;4961314;28;120910;-76
2024/02/12 05:42:32;;;;;;;2.17;1.55;;;;;;;21.33;43.81;99912.66;4958200;28;99921;-76
2024/02/12 05:44:58;;;;;;;3.47;1.45;;;;;;;21.33;43.79;99912.66;4965709;28;96659;-76
2024/02/12 05:47:23;;;;;;;2.97;1.20;;;;;;;21.32;43.74;99916.28;4961687;28;96820;-76
2024/02/12 05:49:49;;;;;;;2.80;1.35;;;;;;;21.33;43.86;99914.47;4966573;28;121167;-76
2024/02/12 05:52:15;;;;;;;3.38;1.80;;;;;;;21.33;44.06;99912.66;4961398;28;97315;-75
2024/02/12 05:54:42;;;;;;;2.60;1.17;;;;;;;21.34;43.95;99913.53;4964855;28;96731;-75
2024/02/12 05:57:09;;;;;;;3.60;1.13;;;;;;;21.33;43.93;99912.66;4962199;28;97001;-76
2024/02/12 05:59:35;;;;;;;2.22;1.67;;;;;;;21.33;43.71;99920.63;4958021;28;97640;-76
2024/02/12 06:02:04;;;;;;;3.28;2.10;;;;;;;21.33;43.95;99917.97;4960809;28;100029;-76
2024/02/12 06:04:30;;;;;;;2.50;1.95;;;;;;;21.33;43.83;99922.44;4964765;28;96930;-76
2024/02/12 06:06:58;;;;;;;2.90;1.80;;;;;;;21.32;43.69;99921.56;4962699;28;96802;-76
2024/02/12 06:09:23;;;;;;;2.47;1.25;;;;;;;21.33;43.62;99927.72;4958564;28;97562;-76
2024/02/12 06:11:48;;;;;;;2.33;1.73;;;;;;;21.33;43.92;99928.59;4959823;28;98463;-76
2024/02/12 06:14:14;;;;;;;2.95;1.67;;;;;;;21.33;43.96;99933.03;4959033;28;96859;-76
2024/02/12 06:16:39;;;;;;;2.63;1.38;;;;;;;21.32;43.72;99942.78;4961259;28;96926;-76
2024/02/12 06:19:07;;;;;;;2.95;1.85;;;;;;;21.32;43.96;99929.53;4958455;28;98577;-75
2024/02/12 06:21:32;;;;;;;2.92;1.10;;;;;;;21.32;44.03;99923.34;4964863;28;100082;-76
2024/02/12 06:23:58;;;;;;;3.03;1.25;;;;;;;21.33;43.91;99935.69;4966840;28;96697;-76
2024/02/12 06:26:24;;;;;;;2.92;1.48;;;;;;;21.33;43.91;99941.84;4962413;28;96778;-76
2024/02/12 06:28:52;;;;;;;2.58;1.23;;;;;;;21.33;43.86;99944.50;4959892;28;98873;-76
2024/02/12 06:31:18;;;;;;;3.33;1.45;;;;;;;21.32;43.55;99937.50;4967156;28;97694;-76
2024/02/12 06:33:43;;;;;;;3.83;2.00;;;;;;;21.32;43.83;99947.22;4952514;28;97479;-76
2024/02/12 06:36:09;;;;;;;2.10;1.10;;;;;;;21.32;43.67;99949.88;4969177;28;99110;-76
2024/02/12 06:38:34;;;;;;;3.17;1.20;;;;;;;21.32;43.63;99956.06;4951891;28;100388;-76
2024/02/12 06:41:00;;;;;;;3.25;2.33;;;;;;;21.30;43.75;99950.81;4964986;28;97890;-76
2024/02/12 06:43:26;;;;;;;3.05;1.77;;;;;;;21.32;43.93;99953.41;4967128;28;96781;-76
2024/02/12 06:45:51;;;;;;;4.00;2.05;;;;;;;21.32;43.83;99963.13;4963435;28;96741;-75
2024/02/12 06:48:17;;;;;;;2.53;1.20;;;;;;;21.32;43.56;99963.13;4960093;28;100452;-76
2024/02/12 06:50:42;;;;;;;3.28;1.92;;;;;;;21.31;43.71;99970.25;4965944;28;97728;-76
2024/02/12 06:53:08;;;;;;;2.78;1.85;;;;;;;21.31;43.77;99972.88;4963802;28;96747;-76
2024/02/12 06:55:34;;;;;;;2.83;1.98;;;;;;;21.30;43.86;99974.69;4958763;28;96835;-76
2024/02/12 06:57:59;;;;;;;2.45;1.67;;;;;;;21.32;43.75;99973.75;4965076;28;97515;-76
2024/02/12 07:00:25;;;;;;;2.65;1.90;;;;;;;21.31;43.84;99980.84;4958383;28;97715;-76
2024/02/12 07:02:50;;;;;;;3.85;1.48;;;;;;;21.30;43.89;99982.66;4963494;28;98204;-76
2024/02/12 07:05:17;;;;;;;2.90;1.90;;;;;;;21.32;43.93;99984.34;4964111;28;97688;-75
2024/02/12 07:07:45;;;;;;;3.17;1.85;;;;;;;21.31;43.67;99991.47;4957824;28;97189;-75
2024/02/12 07:10:11;;;;;;;2.60;1.23;;;;;;;21.32;43.50;99997.63;4966783;28;105929;-76
2024/02/12 07:12:38;;;;;;;3.10;1.65;;;;;;;21.32;43.87;100003.81;4971988;28;97221;-76
2024/02/12 07:15:07;;;;;;;2.50;1.85;;;;;;;21.31;43.90;99999.41;4961545;28;97366;-76
2024/02/12 07:17:32;;;;;;;2.65;1.42;;;;;;;21.29;43.62;100002.13;4963702;28;97050;-76
2024/02/12 07:19:58;;;;;;;3.38;2.20;;;;;;;21.31;43.77;100007.38;4964728;28;97172;-76
2024/02/12 07:22:23;;;;;;;2.25;1.20;;;;;;;21.30;43.53;100017.13;4966934;28;105624;-75
2024/02/12 07:24:51;;;;;;;3.13;2.20;;;;;;;21.31;43.47;100020.63;4964452;28;97304;-76
2024/02/12 07:27:18;;;;;;;2.65;1.80;;;;;;;21.30;43.62;100022.44;4959973;28;99131;-76
2024/02/12 07:29:44;;;;;;;2.33;1.15;;;;;;;21.30;43.51;100027.75;4960401;28;97388;-76
2024/02/12 07:32:12;;;;;;;2.45;1.30;;;;;;;21.31;43.80;100020.63;4963893;28;96768;-75
2024/02/12 07:34:38;;;;;;;3.10;1.30;;;;;;;21.30;43.64;100038.34;4966364;28;96881;-75
2024/02/12 07:37:04;;;;;;;2.80;1.27;;;;;;;21.30;43.84;100027.75;4961015;28;99526;-76
2024/02/12 07:39:30;;;;;;;2.40;1.80;;;;;;;21.31;43.84;100036.53;4965421;28;97299;-76
2024/02/12 07:41:59;;;;;;;3.10;1.25;;;;;;;21.30;43.42;100032.16;4963694;28;96919;-77
2024/02/12 07:44:25;;;;;;;2.38;1.25;;;;;;;21.31;43.86;100039.19;4954328;28;96731;-76
2024/02/12 07:46:51;;;;;;;3.17;2.08;;;;;;;21.30;43.73;100048.06;4962225;28;97412;-76
2024/02/12 07:49:16;;;;;;;2.75;1.40;;;;;;;21.30;43.77;100050.72;4952274;28;100007;-76
2024/02/12 07:51:41;;;;;;;2.90;1.23;;;;;;;21.30;43.81;100056.91;4970555;28;96864;-76
2024/02/12 07:54:07;;;;;;;2.33;1.20;;;;;;;21.30;43.54;100066.63;4972796;28;96753;-76
2024/02/12 07:56:32;;;;;;;2.47;1.98;;;;;;;21.30;43.71;100061.34;4970014;28;97566;-76
2024/02/12 07:58:58;;;;;;;2.78;1.63;;;;;;;21.30;43.54;100082.56;4968027;28;122988;-76
2024/02/12 08:01:23;;;;;;;3.00;1.90;;;;;;;21.29;43.75;100067.59;4968790;28;96848;-76
2024/02/12 08:03:50;;;;;;;3.33;2.25;;;;;;;21.30;43.88;100064.00;4969806;28;96818;-76
2024/02/12 08:06:17;;;;;;;3.80;2.00;;;;;;;21.31;43.75;100081.63;4954587;28;98102;-76
2024/02/12 08:08:42;;;;;;;4.00;2.00;;;;;;;21.32;43.77;100074.53;4964019;28;97412;-76
2024/02/12 08:11:08;;;;;;;2.83;2.08;;;;;;;21.30;43.69;100082.56;4962169;28;97184;-76
2024/02/12 08:13:35;;;;;;;2.97;1.23;;;;;;;21.30;43.90;100080.78;4962232;28;97687;-76
2024/02/12 08:16:01;;;;;;;3.10;2.17;;;;;;;21.30;43.42;100083.44;4962586;28;97286;-76
2024/02/12 08:18:28;;;;;;;2.05;1.60;;;;;;;21.31;43.76;100078.97;4955364;28;97772;-76
2024/02/12 08:20:54;;;;;;;2.50;1.30;;;;;;;21.32;43.56;100085.13;4961957;28;97457;-76
2024/02/12 08:23:20;;;;;;;2.65;1.95;;;;;;;21.31;43.55;100094.91;4960318;28;96941;-76
2024/02/12 08:25:46;;;;;;;3.28;1.50;;;;;;;21.31;43.71;100092.25;4969655;28;97991;-76
2024/02/12 08:28:12;;;;;;;2.80;1.10;;;;;;;21.32;43.43;100095.75;4968067;28;96778;-76
2024/02/12 08:30:37;;;;;;;2.88;1.33;;;;;;;21.31;43.61;100097.56;4962667;28;96764;-76
2024/02/12 08:33:03;;;;;;;3.30;2.10;;;;;;;21.32;43.55;100101.06;4958437;28;97028;-76
2024/02/12 08:35:29;;;;;;;2.45;1.42;;;;;;;21.32;43.61;100101.06;4966692;28;97646;-76
2024/02/12 08:37:55;;;;;;;4.00;1.65;;;;;;;21.32;43.29;100112.56;4965796;28;97268;-76
2024/02/12 08:40:22;;;;;;;2.65;1.92;;;;;;;21.31;43.61;100108.16;4960582;28;96898;-76
2024/02/12 08:42:50;;;;;;;2.67;1.92;;;;;;;21.32;43.42;100115.22;4961309;28;96983;-76
2024/02/12 08:45:15;;;;;;;2.50;1.10;;;;;;;21.34;43.63;100125.72;4947617;28;100612;-76
2024/02/12 08:47:41;;;;;;;2.90;1.33;;;;;;;21.33;43.38;100124.88;4962191;28;97472;-76
2024/02/12 08:50:07;;;;;;;2.50;1.90;;;;;;;21.33;43.62;100127.53;4963973;28;96763;-76
2024/02/12 08:52:33;;;;;;;2.03;1.33;;;;;;;21.33;43.56;100129.31;4957962;28;96689;-75
2024/02/12 08:55:00;;;;;;;2.25;1.40;;;;;;;21.33;43.67;100132.81;4968072;28;96884;-75
2024/02/12 08:57:26;;;;;;;2.22;1.27;;;;;;;21.32;43.38;100139.06;4951902;28;97467;-75
2024/02/12 08:59:52;;;;;;;2.50;1.83;;;;;;;21.33;43.40;100139.94;4974782;28;96929;-76
2024/02/12 09:02:18;;;;;;;3.40;2.20;;;;;;;21.33;43.32;100146.09;4959708;28;97738;-76
2024/02/12 09:04:43;;;;;;;3.40;2.05;;;;;;;21.33;43.27;100151.38;4957275;28;98487;-76
2024/02/12 09:07:11;;;;;;;3.55;1.95;;;;;;;21.32;43.66;100155.00;4960760;28;98755;-76
2024/02/12 09:09:37;;;;;;;2.83;2.20;;;;;;;21.33;43.41;100158.50;4959929;28;97513;-76
2024/02/12 09:12:02;;;;;;;3.00;1.30;;;;;;;21.33;43.53;100162.00;4962521;28;96884;-76
2024/02/12 09:14:28;;;;;;;2.67;1.27;;;;;;;21.33;43.59;100164.66;4969267;28;96862;-76
2024/02/12 09:16:53;;;;;;;3.03;2.17;;;;;;;21.33;43.42;100169.97;4961532;28;100130;-76
2024/02/12 09:19:19;;;;;;;2.50;1.40;;;;;;;21.34;43.54;100166.41;4962766;28;108962;-76
2024/02/12 09:21:45;;;;;;;3.20;2.35;;;;;;;21.34;43.52;100174.34;4959470;28;96651;-76
2024/02/12 09:24:11;;;;;;;2.28;1.38;;;;;;;21.35;43.60;100191.13;4965202;28;97770;-76
2024/02/12 09:26:37;;;;;;;2.88;1.40;;;;;;;21.35;43.44;100185.81;4966853;28;97261;-75
2024/02/12 09:29:03;;;;;;;2.90;1.98;;;;;;;21.35;43.75;100191.13;4965489;28;97445;-76
2024/02/12 09:31:32;;;;;;;3.78;2.17;;;;;;;21.35;43.53;100197.28;4959671;28;98322;-75
2024/02/12 09:33:59;;;;;;;3.10;2.35;;;;;;;21.34;43.41;100195.56;4953883;28;97651;-75
2024/02/12 09:36:25;;;;;;;3.50;1.80;;;;;;;21.35;43.34;100199.06;4960652;28;100364;-75
2024/02/12 09:38:52;;;;;;;2.55;1.17;;;;;;;21.36;43.38;100206.13;4956829;28;97724;-75
2024/02/12 09:41:28;;;;;;;2.90;1.58;;;;;;;21.34;43.51;100211.50;4968152;28;96976;-76
2024/02/12 09:43:57;;;;;;;2.25;1.20;;;;;;;21.35;43.54;100217.66;4958088;28;98343;-75
2024/02/12 09:46:23;;;;;;;2.60;1.50;;;;;;;21.35;43.65;100220.31;4958921;28;96674;-75
2024/02/12 09:48:49;;;;;;;2.78;1.30;;;;;;;21.35;43.33;100222.94;4964428;28;96731;-75
2024/02/12 09:51:16;;;;;;;2.40;1.40;;;;;;;21.35;43.55;100225.59;4966182;28;96785;-74
2024/02/12 09:53:43;;;;;;;3.53;2.17;;;;;;;21.35;43.41;100234.41;4965309;28;96792;-76
2024/02/12 09:56:11;;;;;;;2.75;2.15;;;;;;;21.35;43.44;100242.38;4968330;28;97584;-74
2024/02/12 09:58:37;;;;;;;2.92;1.73;;;;;;;21.35;43.58;100238.88;4968807;28;97373;-75
2024/02/12 10:01:05;;;;;;;2.92;1.98;;;;;;;21.35;43.63;100239.72;4964894;28;97641;-74
2024/02/12 10:03:32;;;;;;;2.80;2.03;;;;;;;21.36;43.30;100244.13;4970692;28;96988;-76
2024/02/12 10:05:58;;;;;;;3.38;2.15;;;;;;;21.36;43.34;100245.91;4963505;28;98055;-74
2024/02/12 10:08:25;;;;;;;3.70;2.13;;;;;;;21.36;43.44;100246.75;4973282;28;97398;-75
2024/02/12 10:10:52;;;;;;;3.58;2.50;;;;;;;21.36;43.50;100254.72;4966647;28;96845;-75
2024/02/12 10:13:21;;;;;;;3.38;2.42;;;;;;;21.36;43.48;100260.03;4963792;28;98917;-77
2024/02/12 10:15:49;;;;;;;3.05;1.83;;;;;;;21.36;43.37;100270.63;4953812;28;96907;-77
2024/02/12 10:18:16;;;;;;;2.25;1.30;;;;;;;21.37;43.47;100263.53;4970884;28;96994;-77
2024/02/12 10:20:45;;;;;;;3.40;2.13;;;;;;;21.37;43.42;100259.13;4959320;28;97081;-77
2024/02/12 10:23:15;;;;;;;3.75;1.63;;;;;;;21.38;43.57;100260.81;4953052;28;98587;-77
2024/02/12 10:25:47;;;;;;;2.88;2.30;;;;;;;21.39;43.37;100272.28;4971029;28;97866;-77
2024/02/12 10:28:13;;;;;;;2.88;1.90;;;;;;;21.39;43.59;100270.53;4971600;28;98777;-77
2024/02/12 10:30:40;;;;;;;4.28;2.60;;;;;;;21.40;43.61;100274.03;4971902;28;97652;-77
2024/02/12 10:33:08;;;;;;;3.22;2.30;;;;;;;21.41;43.37;100281.06;4965546;28;97912;-77
2024/02/12 10:35:37;;;;;;;3.60;1.40;;;;;;;21.41;43.27;100281.06;4963772;28;97126;-76
2024/02/12 10:38:04;;;;;;;2.70;2.15;;;;;;;21.41;43.34;100287.22;4962633;28;96957;-77
2024/02/12 10:40:35;;;;;;;4.15;2.20;;;;;;;21.41;43.50;100292.53;4967252;28;97043;-77
2024/02/12 10:43:05;;;;;;;5.05;2.30;;;;;;;21.41;43.65;100292.53;4968405;28;100599;-77
2024/02/12 10:45:31;;;;;;;2.92;1.55;;;;;;;21.41;43.48;100297.00;4970967;28;98073;-77
2024/02/12 10:47:57;;;;;;;2.65;1.55;;;;;;;21.41;43.37;100303.16;4966688;28;96974;-77
2024/02/12 10:50:24;;;;;;;3.95;2.30;;;;;;;21.39;43.43;100302.34;4966396;28;97558;-77
2024/02/12 10:52:52;;;;;;;2.63;1.55;;;;;;;21.40;43.42;100301.41;4962547;28;99750;-77
2024/02/12 10:55:18;;;;;;;3.83;2.78;;;;;;;21.41;43.27;100311.13;4964379;28;98085;-77
2024/02/12 10:57:46;;;;;;;3.72;2.20;;;;;;;21.41;43.48;100316.41;4964125;28;97387;-77
2024/02/12 11:00:32;;;;;;;4.20;2.45;;;;;;;21.41;43.54;100320.88;4967515;28;96800;-77
2024/02/12 11:03:00;;;;;;;4.88;2.45;;;;;;;21.39;43.62;100322.69;4971067;28;97150;-77
2024/02/12 11:05:27;;;;;;;4.47;2.80;;;;;;;21.39;43.37;100320.94;4969350;28;97348;-77
2024/02/12 11:08:08;;;;;;;3.83;2.00;;;;;;;21.39;43.08;100323.56;4969460;28;97256;-77
2024/02/12 11:10:34;;;;;;;4.63;1.95;;;;;;;21.39;43.08;100328.88;4959220;28;97363;-77
2024/02/12 11:13:05;;;;;;;3.95;2.80;;;;;;;21.38;43.16;100319.19;4970870;28;97533;-77
2024/02/12 11:15:31;;;;;;;4.13;3.08;;;;;;;21.39;43.25;100315.63;4965348;28;97407;-75
2024/02/12 11:17:56;;;;;;;4.70;2.92;;;;;;;21.40;43.42;100316.47;4967430;28;98805;-75
2024/02/12 11:20:25;;;;;;;4.53;2.10;;;;;;;21.41;42.97;100323.53;4959906;28;96719;-75
2024/02/12 11:22:52;;;;;;;3.92;2.17;;;;;;;21.39;43.29;100317.38;4960338;28;96990;-75
2024/02/12 11:25:18;;;;;;;3.88;2.15;;;;;;;21.39;43.09;100323.56;4970678;28;98121;-75
2024/02/12 11:27:58;;;;;;;4.18;3.10;;;;;;;21.41;43.49;100318.22;4966031;28;98623;-76
2024/02/12 11:30:24;;;;;;;4.22;2.97;;;;;;;21.41;43.14;100326.19;4963971;28;97364;-76
2024/02/12 11:32:50;;;;;;;4.82;2.88;;;;;;;21.41;43.20;100324.38;4961167;28;96862;-74
2024/02/12 11:35:18;;;;;;;3.80;2.20;;;;;;;21.43;43.35;100332.28;4963044;28;96948;-75
2024/02/12 11:37:55;;;;;;;5.03;2.35;;;;;;;21.43;43.16;100329.63;4962109;28;97608;-76
2024/02/12 11:40:21;;;;;;;4.57;3.65;;;;;;;21.42;43.14;100334.03;4965402;28;96840;-75
2024/02/12 11:42:51;;;;;;;3.88;2.00;;;;;;;21.43;43.27;100330.47;4964797;28;98114;-76